New Braunfels, TX (78130)

12:22 PM CST on February 13, 2016 (GMT -0600)
Dollar Dr. | | Change Station
CLOSE
Current Station
Personal Weather Station
Location: New Braunfels, TX
Elevation: 673 ft
Nearby Weather Stations

Elev 673 ft 29.70 °N, 98.08 °W | Updated 9 seconds ago

Partly Cloudy
Partly Cloudy
70.7 °F
Feels Like 72 °F
N
3.1
Wind Variable Wind from SSW
Gusts 12.1 mph

Today
High -- | Low -- °F
--% Chance of Precip.
Yesterday
High -- | Low -- °F
Precip. -- in
Pressure 30.31 in
Visibility 10.0 miles
Clouds Few 1300 ft
Heat Index 72 °F
Dew Point 64 °F
Humidity 79%
Rainfall 0.00 in
Snow Depth Not available.
7:13 AM 6:19 PM
Waxing Crescent, 33% visible
METAR KBAZ 131751Z 21009KT 10SM FEW013 19/13 A3032 RMK AO2 SLP264 T01940128 10194 20089 58005
Pressure 30.31 in
Visibility 10.0 miles
Clouds Few 1300 ft
Heat Index 72 °F
Dew Point 64 °F
Humidity 79%
Rainfall 0.00 in
Snow Depth Not available.
7:13 AM 6:19 PM
Waxing Crescent, 33% visible
METAR KBAZ 131751Z 21009KT 10SM FEW013 19/13 A3032 RMK AO2 SLP264 T01940128 10194 20089 58005

10-Day Weather Forecast

Almanac

Astronomy

Feb. 13, 2016 Rise Set
Actual Time
Civil Twilight
Nautical Twilight
Astronomical Twilight
Moon
Length of Visible Light
Length of Day
Tomorrow will be .
, % of the Moon is Illuminated

Today's Extremes

State Highs State Lows

Community

WunderPhotos

Upload Photos

1,892,632 photos uploaded!

WunderBlog® & News

Nearby

Air Quality

  Air Quality AQ Index Pollutant
Not available.

Snow Depth

Station Depth Elevation

Earthquake Activity

City Distance Mag. Time & Date
Minimum magnitude displayed is 2.5.

Coastal Water Temperatures

Place Temperature

Stations

Nearby Weather Stations

Station Location Temp. Windchill Dew Point Humidity Wind Precip. Elev Updated Type
                   

Watches & Warnings

There are currently no watches in effect.